createdAt,value
2018-11-05T00:00:00.610Z,19.8
2018-11-05T00:00:51.757Z,19.8
2018-11-05T00:01:41.845Z,19.8
2018-11-05T00:02:32.427Z,19.8
2018-11-05T00:03:21.937Z,19.8
2018-11-05T00:04:11.750Z,19.8
2018-11-05T00:05:02.239Z,19.8
2018-11-05T00:05:52.672Z,19.8
2018-11-05T00:06:42.099Z,19.8
2018-11-05T00:24:57.759Z,19.8
2018-11-05T00:25:47.048Z,19.8
2018-11-05T00:26:37.396Z,19.8
2018-11-05T00:27:27.767Z,19.8
2018-11-05T00:28:18.095Z,19.8
2018-11-05T00:29:08.190Z,19.8
2018-11-05T00:29:57.681Z,19.8
2018-11-05T00:30:48.539Z,19.8
2018-11-05T00:31:37.340Z,19.8
2018-11-05T00:32:28.649Z,19.8
2018-11-05T00:33:17.381Z,19.8
2018-11-05T00:34:07.947Z,19.8
2018-11-05T00:34:57.603Z,19.8
2018-11-05T00:35:47.540Z,19.8
2018-11-05T00:36:37.998Z,19.8
2018-11-05T00:37:27.710Z,19.8
2018-11-05T00:38:18.859Z,19.8
2018-11-05T00:39:08.366Z,19.8
2018-11-05T00:39:58.921Z,19.8
2018-11-05T00:40:49.281Z,19.8
2018-11-05T00:41:38.635Z,19.8
2018-11-05T00:42:28.803Z,19.8
2018-11-05T00:43:19.162Z,19.8
2018-11-05T00:44:07.762Z,19.8
2018-11-05T00:44:59.290Z,19.8
2018-11-05T00:45:50.954Z,19.8
2018-11-05T00:46:39.515Z,19.8
2018-11-05T00:47:30.007Z,19.8
2018-11-05T00:48:19.212Z,19.8
2018-11-05T00:49:09.601Z,19.8
2018-11-05T00:49:59.901Z,19.8
2018-11-05T00:50:49.237Z,19.8
2018-11-05T00:51:40.209Z,19.8
2018-11-05T00:52:29.794Z,19.8
2018-11-05T00:53:18.837Z,19.8
2018-11-05T00:54:09.511Z,19.8
2018-11-05T00:54:59.532Z,19.8
2018-11-05T00:55:49.972Z,19.8
2018-11-05T00:56:39.864Z,19.8
2018-11-05T00:57:30.991Z,19.8
2018-11-05T00:58:19.780Z,19.8
2018-11-05T00:59:09.449Z,19.8
2018-11-05T01:00:00.101Z,19.8
2018-11-05T01:00:49.869Z,19.8
2018-11-05T01:01:40.264Z,19.8
2018-11-05T01:02:30.121Z,19.8
2018-11-05T01:03:19.848Z,19.8
2018-11-05T01:04:10.329Z,19.8
2018-11-05T01:05:01.284Z,19.8
2018-11-05T01:05:50.223Z,19.8
2018-11-05T01:06:40.598Z,19.8
2018-11-05T01:07:30.700Z,19.8
2018-11-05T01:08:20.966Z,19.8
2018-11-05T01:09:11.049Z,19.8
2018-11-05T01:10:15.235Z,19.7
2018-11-05T01:10:51.471Z,19.8
2018-11-05T01:11:41.491Z,19.8
2018-11-05T01:12:31.131Z,19.8
2018-11-05T01:13:21.349Z,19.8
2018-11-05T01:14:10.850Z,19.8
2018-11-05T01:15:01.550Z,19.8
2018-11-05T01:15:51.360Z,19.8
2018-11-05T01:16:41.861Z,19.8
2018-11-05T01:17:31.063Z,19.8
2018-11-05T01:18:21.820Z,19.8
2018-11-05T01:19:12.570Z,19.7
2018-11-05T01:20:01.514Z,19.8
2018-11-05T01:20:51.688Z,19.8
2018-11-05T01:21:41.955Z,19.7
2018-11-05T01:22:31.840Z,19.8
2018-11-05T01:23:21.890Z,19.8
2018-11-05T01:24:12.158Z,19.8
2018-11-05T01:25:01.364Z,19.8
2018-11-05T01:25:52.573Z,19.7
2018-11-05T01:26:41.565Z,19.8
2018-11-05T01:27:32.100Z,19.7
2018-11-05T01:28:22.159Z,19.8
2018-11-05T01:29:12.028Z,19.8
2018-11-05T01:30:02.375Z,19.7
2018-11-05T01:30:52.895Z,19.7
2018-11-05T01:31:42.984Z,19.8
2018-11-05T01:32:32.194Z,19.8
2018-11-05T01:33:22.085Z,19.7
2018-11-05T01:34:12.340Z,19.7
2018-11-05T01:35:01.851Z,19.8
2018-11-05T01:35:53.527Z,19.7
2018-11-05T01:36:42.494Z,19.7
2018-11-05T01:37:32.065Z,19.7
2018-11-05T01:38:23.445Z,19.8
2018-11-05T01:39:12.937Z,19.8
2018-11-05T01:40:03.297Z,19.7
2018-11-05T01:40:53.085Z,19.7
2018-11-05T01:41:42.569Z,19.7
2018-11-05T01:42:33.014Z,19.8
2018-11-05T01:43:22.518Z,19.7
2018-11-05T01:44:13.593Z,19.7
2018-11-05T01:45:02.402Z,19.8
2018-11-05T01:45:54.012Z,19.8
2018-11-05T01:46:43.281Z,19.7
2018-11-05T01:47:33.571Z,19.7
2018-11-05T01:48:23.161Z,19.8
2018-11-05T01:49:13.696Z,19.7
2018-11-05T01:50:03.356Z,19.7
2018-11-05T01:50:53.345Z,19.7
2018-11-05T01:51:44.468Z,19.7
2018-11-05T01:52:34.268Z,19.7
2018-11-05T01:53:23.795Z,19.7
2018-11-05T01:54:14.361Z,19.7
2018-11-05T01:55:03.618Z,19.7
2018-11-05T01:55:54.457Z,19.7
2018-11-05T01:56:44.520Z,19.7
2018-11-05T01:57:33.736Z,19.7
2018-11-05T01:58:25.205Z,19.7
2018-11-05T01:59:14.945Z,19.8
2018-11-05T02:00:04.204Z,19.7
2018-11-05T02:00:54.561Z,19.7
2018-11-05T02:01:44.883Z,19.7
2018-11-05T02:02:34.825Z,19.7
2018-11-05T02:03:24.840Z,19.7
2018-11-05T02:04:14.852Z,19.7
2018-11-05T02:05:04.667Z,19.7
2018-11-05T02:05:55.482Z,19.7
2018-11-05T02:06:45.033Z,19.7
2018-11-05T02:07:34.725Z,19.7
2018-11-05T02:08:24.775Z,19.7
2018-11-05T02:09:14.079Z,19.7
2018-11-05T02:10:05.434Z,19.7
2018-11-05T02:10:54.854Z,19.7
2018-11-05T02:11:46.137Z,19.7
2018-11-05T02:12:36.202Z,19.7
2018-11-05T02:13:26.602Z,19.7
2018-11-05T02:14:15.209Z,19.7
2018-11-05T02:15:06.172Z,19.7
2018-11-05T02:15:56.957Z,19.7
2018-11-05T02:16:45.974Z,19.7
2018-11-05T02:17:35.077Z,19.7
2018-11-05T02:18:25.050Z,19.7
2018-11-05T02:19:15.999Z,19.7
2018-11-05T02:20:06.369Z,19.7
2018-11-05T02:20:55.811Z,19.7
2018-11-05T02:21:45.170Z,19.7
2018-11-05T02:22:36.430Z,19.7
2018-11-05T02:23:25.709Z,19.7
2018-11-05T02:24:16.806Z,19.7
2018-11-05T02:25:06.132Z,19.7
2018-11-05T02:25:55.288Z,19.7
2018-11-05T02:26:46.774Z,19.7
2018-11-05T02:27:34.444Z,19.7
2018-11-05T02:28:26.121Z,19.7
2018-11-05T02:29:16.096Z,19.7
2018-11-05T02:30:06.452Z,19.7
2018-11-05T02:30:56.771Z,19.7
2018-11-05T02:31:46.885Z,19.7
2018-11-05T02:32:36.913Z,19.7
2018-11-05T02:33:25.871Z,19.7
2018-11-05T02:34:17.358Z,19.7
2018-11-05T02:35:06.560Z,19.7
2018-11-05T02:35:56.313Z,19.7
2018-11-05T02:36:47.253Z,19.7
2018-11-05T02:37:36.984Z,19.7
2018-11-05T02:38:26.770Z,19.7
2018-11-05T02:39:16.828Z,19.7
2018-11-05T02:40:07.191Z,19.7
2018-11-05T02:40:57.303Z,19.7
2018-11-05T02:41:47.227Z,19.7
2018-11-05T02:42:37.122Z,19.7
2018-11-05T02:43:27.885Z,19.7
2018-11-05T02:44:17.820Z,19.7
2018-11-05T02:45:07.255Z,19.7
2018-11-05T02:45:57.947Z,19.7
2018-11-05T02:46:47.380Z,19.7
2018-11-05T02:47:38.035Z,19.7
2018-11-05T02:48:27.877Z,19.7
2018-11-05T02:49:17.872Z,19.7
2018-11-05T02:50:08.045Z,19.7
2018-11-05T02:50:57.350Z,19.7
2018-11-05T02:51:47.867Z,19.7
2018-11-05T02:52:37.559Z,19.7
2018-11-05T02:53:28.718Z,19.7
2018-11-05T02:54:17.680Z,19.7
2018-11-05T02:55:07.825Z,19.7
2018-11-05T02:55:58.047Z,19.7
2018-11-05T02:56:49.017Z,19.7
2018-11-05T02:57:38.529Z,19.7
2018-11-05T02:58:28.539Z,19.7
2018-11-05T02:59:18.941Z,19.7
2018-11-05T03:00:08.087Z,19.6
2018-11-05T03:00:59.286Z,19.7
2018-11-05T03:01:48.122Z,19.7
2018-11-05T03:02:38.299Z,19.6
2018-11-05T03:03:29.532Z,19.7
2018-11-05T03:04:18.527Z,19.7
2018-11-05T03:05:09.541Z,19.6
2018-11-05T03:05:58.706Z,19.6
2018-11-05T03:06:49.004Z,19.6
2018-11-05T03:07:39.229Z,19.6
2018-11-05T03:08:29.452Z,19.6
2018-11-05T03:09:19.603Z,19.6
2018-11-05T03:10:09.705Z,19.7
2018-11-05T03:10:59.233Z,19.6
2018-11-05T03:11:49.882Z,19.7
2018-11-05T03:12:39.771Z,19.6
2018-11-05T03:13:30.153Z,19.7
2018-11-05T03:14:19.999Z,19.7
2018-11-05T03:15:10.316Z,19.6
2018-11-05T03:15:59.513Z,19.6
2018-11-05T03:16:49.900Z,19.6
2018-11-05T03:17:40.440Z,19.6
2018-11-05T03:18:30.596Z,19.6
2018-11-05T03:19:20.104Z,19.6
2018-11-05T03:20:10.335Z,19.6
2018-11-05T03:21:00.863Z,19.7
2018-11-05T03:21:51.109Z,19.7
2018-11-05T03:22:40.220Z,19.6
2018-11-05T03:23:31.105Z,19.7
2018-11-05T03:24:20.575Z,19.6
2018-11-05T03:25:10.398Z,19.6
2018-11-05T03:26:01.131Z,19.7
2018-11-05T03:26:50.871Z,19.7
2018-11-05T03:27:41.154Z,19.6
2018-11-05T03:28:31.772Z,19.6
2018-11-05T03:29:20.708Z,19.6
2018-11-05T03:30:12.068Z,19.6
2018-11-05T03:31:01.393Z,19.7
2018-11-05T03:31:51.423Z,19.6
2018-11-05T03:32:41.963Z,19.7
2018-11-05T03:33:31.303Z,19.6
2018-11-05T03:34:21.360Z,19.6
2018-11-05T03:35:11.459Z,19.6
2018-11-05T03:36:03.093Z,19.6
2018-11-05T03:36:52.288Z,19.6
2018-11-05T03:37:41.933Z,19.6
2018-11-05T03:38:31.675Z,19.6
2018-11-05T03:39:22.030Z,19.6
2018-11-05T03:40:12.101Z,19.6
2018-11-05T03:41:01.248Z,19.6
2018-11-05T03:41:52.152Z,19.6
2018-11-05T03:42:42.057Z,19.6
2018-11-05T03:43:32.060Z,19.6
2018-11-05T03:44:22.337Z,19.6
2018-11-05T03:45:12.144Z,19.6
2018-11-05T03:46:02.802Z,19.6
2018-11-05T03:46:52.822Z,19.6
2018-11-05T03:47:41.725Z,19.6
2018-11-05T03:48:32.399Z,19.6
2018-11-05T03:49:22.372Z,19.6
2018-11-05T03:50:12.788Z,19.6
2018-11-05T03:51:02.324Z,19.6
2018-11-05T03:51:52.385Z,19.6
2018-11-05T03:52:42.674Z,19.6
2018-11-05T03:53:31.811Z,19.6
2018-11-05T03:54:22.564Z,19.6
2018-11-05T03:55:13.179Z,19.6
2018-11-05T03:56:05.024Z,19.6
2018-11-05T03:56:53.302Z,19.6
2018-11-05T03:57:43.330Z,19.6
2018-11-05T03:58:32.637Z,19.6
2018-11-05T03:59:23.447Z,19.6
2018-11-05T04:00:14.361Z,19.6
2018-11-05T04:01:03.590Z,19.6
2018-11-05T04:01:53.404Z,19.6
2018-11-05T04:02:43.446Z,19.6
2018-11-05T04:03:33.495Z,19.6
2018-11-05T04:04:23.823Z,19.6
2018-11-05T04:05:14.146Z,19.7
2018-11-05T04:06:04.209Z,19.7
2018-11-05T04:06:54.853Z,19.7
2018-11-05T04:07:43.228Z,19.7
2018-11-05T04:08:34.006Z,19.7
2018-11-05T04:09:23.053Z,19.7
2018-11-05T04:10:13.110Z,19.7
2018-11-05T04:11:04.568Z,19.8
2018-11-05T04:11:53.520Z,19.8
2018-11-05T04:12:44.710Z,19.7
2018-11-05T04:13:34.096Z,19.7
2018-11-05T04:14:24.295Z,19.7
2018-11-05T04:15:15.302Z,19.7
2018-11-05T04:16:05.875Z,19.7
2018-11-05T04:16:55.055Z,19.8
2018-11-05T04:17:44.566Z,19.8
2018-11-05T04:18:33.555Z,19.8
2018-11-05T04:19:24.048Z,19.8
2018-11-05T04:20:15.526Z,19.8
2018-11-05T04:21:04.762Z,19.8
2018-11-05T04:21:54.344Z,19.8
2018-11-05T04:22:45.182Z,19.8
2018-11-05T04:23:35.511Z,19.8
2018-11-05T04:24:25.293Z,19.8
2018-11-05T04:25:14.564Z,19.8
2018-11-05T04:26:05.164Z,19.8
2018-11-05T04:26:54.905Z,19.8
2018-11-05T04:27:47.212Z,19.8
2018-11-05T04:28:35.877Z,19.8
2018-11-05T04:29:25.952Z,19.8
2018-11-05T04:30:15.694Z,19.8
2018-11-05T04:31:05.587Z,19.8
2018-11-05T04:31:54.482Z,19.8
2018-11-05T04:32:45.972Z,19.8
2018-11-05T04:33:36.055Z,19.8
2018-11-05T04:34:25.715Z,19.8
2018-11-05T04:35:15.815Z,19.8
2018-11-05T04:36:05.835Z,19.8
2018-11-05T04:54:09.916Z,19.8
2018-11-05T04:54:59.689Z,19.8
2018-11-05T04:55:49.845Z,19.8
2018-11-05T04:56:39.333Z,19.8
2018-11-05T04:57:29.330Z,19.8
2018-11-05T04:58:20.191Z,19.8
2018-11-05T04:59:09.871Z,19.8
2018-11-05T04:59:59.515Z,19.8
2018-11-05T05:00:50.079Z,19.8
2018-11-05T05:01:39.583Z,19.8
2018-11-05T05:02:29.637Z,19.8
2018-11-05T05:03:20.166Z,19.8
2018-11-05T05:04:10.280Z,19.8
2018-11-05T05:05:00.410Z,19.8
2018-11-05T05:05:50.532Z,19.8
2018-11-05T05:06:40.223Z,19.8
2018-11-05T05:07:29.907Z,19.8
2018-11-05T05:08:19.895Z,19.8
2018-11-05T05:09:10.182Z,19.8
2018-11-05T05:10:00.512Z,19.8
2018-11-05T05:10:49.906Z,19.8
2018-11-05T05:11:40.022Z,19.8
2018-11-05T05:12:31.080Z,19.8
2018-11-05T05:13:21.826Z,19.8
2018-11-05T05:14:10.820Z,19.8
2018-11-05T05:15:00.844Z,19.8
2018-11-05T05:15:50.615Z,19.8
2018-11-05T05:16:40.974Z,19.8
2018-11-05T05:17:31.339Z,19.8
2018-11-05T05:18:21.326Z,19.8
2018-11-05T05:19:11.957Z,19.8
2018-11-05T05:20:01.181Z,19.8
2018-11-05T05:20:51.217Z,19.8
2018-11-05T05:21:41.399Z,19.8
2018-11-05T05:22:31.770Z,19.8
2018-11-05T05:23:21.059Z,19.8
2018-11-05T05:24:11.457Z,19.8
2018-11-05T05:25:02.362Z,19.8
2018-11-05T05:25:51.509Z,19.8
2018-11-05T05:26:41.941Z,19.8
2018-11-05T05:27:31.821Z,19.8
2018-11-05T05:28:21.791Z,19.8
2018-11-05T05:29:11.812Z,19.8
2018-11-05T05:30:01.519Z,19.8
2018-11-05T05:30:52.293Z,19.8
2018-11-05T05:31:42.064Z,19.8
2018-11-05T05:32:32.136Z,19.8
2018-11-05T05:33:21.648Z,19.8
2018-11-05T05:34:12.362Z,19.8
2018-11-05T05:35:02.875Z,19.8
2018-11-05T05:35:52.068Z,19.8
2018-11-05T05:36:42.025Z,19.8
2018-11-05T05:37:32.013Z,19.8
2018-11-05T05:38:22.548Z,19.8
2018-11-05T05:39:13.193Z,19.8
2018-11-05T05:40:02.738Z,19.8
2018-11-05T05:40:53.811Z,19.8
2018-11-05T05:41:42.490Z,19.8
2018-11-05T05:42:32.844Z,19.8
2018-11-05T05:43:23.040Z,19.8
2018-11-05T05:44:13.527Z,19.8
2018-11-05T05:45:03.543Z,19.8
2018-11-05T05:45:52.772Z,19.8
2018-11-05T05:46:42.848Z,19.8
2018-11-05T05:47:33.463Z,19.8
2018-11-05T05:48:23.550Z,19.8
2018-11-05T05:49:13.455Z,19.8
2018-11-05T05:50:04.332Z,19.8
2018-11-05T05:50:53.717Z,19.8
2018-11-05T05:51:43.509Z,19.8
2018-11-05T05:52:34.158Z,19.8
2018-11-05T05:53:23.916Z,19.8
2018-11-05T05:54:13.299Z,19.8
2018-11-05T05:55:04.564Z,19.8
2018-11-05T05:55:54.654Z,19.8
2018-11-05T05:56:43.462Z,19.8
2018-11-05T05:57:33.927Z,19.8
2018-11-05T05:58:24.349Z,19.8
2018-11-05T05:59:13.549Z,19.8
2018-11-05T06:00:06.226Z,19.8
2018-11-05T06:00:53.681Z,19.8
2018-11-05T06:01:43.914Z,19.8
2018-11-05T06:02:33.894Z,19.8
2018-11-05T06:03:24.337Z,19.8
2018-11-05T06:04:14.714Z,19.8
2018-11-05T06:05:04.396Z,19.8
2018-11-05T06:05:54.529Z,19.8
2018-11-05T06:06:44.901Z,19.8
2018-11-05T06:07:34.656Z,19.8
2018-11-05T06:08:24.028Z,19.8
2018-11-05T06:09:14.438Z,19.8
2018-11-05T06:10:04.904Z,19.8
2018-11-05T06:10:55.173Z,19.8
2018-11-05T06:11:44.473Z,19.8
2018-11-05T06:12:35.580Z,19.8
2018-11-05T06:13:24.896Z,19.8
2018-11-05T06:14:15.133Z,19.8
2018-11-05T06:15:04.893Z,19.8
2018-11-05T06:15:56.836Z,19.8
2018-11-05T06:16:44.477Z,19.8
2018-11-05T06:17:35.372Z,19.8
2018-11-05T06:18:25.543Z,19.8
2018-11-05T06:19:15.096Z,19.8
2018-11-05T06:20:05.463Z,19.8
2018-11-05T06:20:55.751Z,19.8
2018-11-05T06:21:47.461Z,19.8
2018-11-05T06:22:35.441Z,19.8
2018-11-05T06:23:24.874Z,19.8
2018-11-05T06:24:15.000Z,19.8
2018-11-05T06:25:05.623Z,19.8
2018-11-05T06:25:56.477Z,19.8
2018-11-05T06:26:45.353Z,19.8
2018-11-05T06:27:35.897Z,19.8
2018-11-05T06:28:26.448Z,19.8
2018-11-05T06:29:16.190Z,19.8
2018-11-05T06:30:06.550Z,19.8
2018-11-05T06:30:56.143Z,19.8
2018-11-05T06:31:47.027Z,19.8
2018-11-05T06:32:36.740Z,19.8
2018-11-05T06:33:26.833Z,19.8
2018-11-05T06:34:16.285Z,19.8
2018-11-05T06:35:06.559Z,19.8
2018-11-05T06:35:56.296Z,19.8
2018-11-05T06:36:47.806Z,19.8
2018-11-05T06:37:36.615Z,19.8
2018-11-05T06:38:26.942Z,19.8
2018-11-05T06:39:16.965Z,19.8
2018-11-05T06:40:06.409Z,19.8
2018-11-05T06:40:57.403Z,19.8
2018-11-05T06:41:47.805Z,20.4
2018-11-05T06:42:36.949Z,21.6
2018-11-05T06:43:27.535Z,21.3
2018-11-05T06:44:18.839Z,24.7
2018-11-05T06:45:07.458Z,26.4
2018-11-05T06:45:57.329Z,26.5
2018-11-05T06:46:47.244Z,26.1
2018-11-05T06:47:37.916Z,25.3
2018-11-05T06:48:27.304Z,24.2
2018-11-05T06:49:17.497Z,23.6
2018-11-05T06:50:07.445Z,23.3
2018-11-05T06:50:58.029Z,23.1
2018-11-05T06:51:47.364Z,22.9
2018-11-05T06:52:38.140Z,22.8
2018-11-05T06:53:27.613Z,22.7
2018-11-05T06:54:17.506Z,22.6
2018-11-05T06:55:08.114Z,22.6
2018-11-05T06:55:58.771Z,22.4
2018-11-05T06:56:47.632Z,22.4
2018-11-05T06:57:38.727Z,22.4
2018-11-05T06:58:29.273Z,22.3
2018-11-05T06:59:17.691Z,22.3
2018-11-05T07:00:07.751Z,22.2
2018-11-05T07:00:58.518Z,22.1
2018-11-05T07:01:48.856Z,22.1
2018-11-05T07:02:38.390Z,22.1
2018-11-05T07:03:28.123Z,22
2018-11-05T07:04:18.542Z,21.9
2018-11-05T07:05:08.047Z,22.3
2018-11-05T07:06:00.842Z,23.1
2018-11-05T07:06:48.674Z,24.7
2018-11-05T07:07:39.156Z,27.3
2018-11-05T07:08:28.596Z,28.5
2018-11-05T07:09:18.851Z,28.6
2018-11-05T07:10:08.979Z,28.1
2018-11-05T07:10:58.760Z,27.5
2018-11-05T07:11:49.319Z,27.2
2018-11-05T07:12:39.409Z,27.1
2018-11-05T07:13:29.814Z,27.4
2018-11-05T07:15:09.336Z,28.1
2018-11-05T07:15:59.018Z,28.4
2018-11-05T07:16:49.945Z,28.4
2018-11-05T07:17:39.665Z,28.4
2018-11-05T07:18:31.703Z,28.6
2018-11-05T07:19:21.566Z,28.6
2018-11-05T07:20:09.343Z,28.8
2018-11-05T07:20:59.490Z,29
2018-11-05T07:21:48.731Z,29.2
2018-11-05T07:22:39.810Z,29.4
2018-11-05T07:23:30.226Z,29.6
2018-11-05T07:24:20.267Z,29.8
2018-11-05T07:25:10.261Z,29.9
2018-11-05T07:25:59.443Z,30.1
2018-11-05T07:26:50.429Z,30.3
2018-11-05T07:27:41.623Z,30.4
2018-11-05T07:28:30.563Z,30.6
2018-11-05T07:29:20.433Z,30.7
2018-11-05T07:30:10.665Z,30.9
2018-11-05T07:31:00.383Z,31.1
2018-11-05T07:31:50.338Z,31.2
2018-11-05T07:32:40.195Z,31.4
2018-11-05T07:33:32.256Z,31.6
2018-11-05T07:34:22.143Z,31.8
2018-11-05T07:35:10.103Z,31.9
2018-11-05T07:36:00.269Z,32.1
2018-11-05T07:36:51.110Z,32.3
2018-11-05T07:37:41.109Z,32.4
2018-11-05T07:38:31.308Z,32.7
2018-11-05T07:39:21.081Z,32.8
2018-11-05T07:40:11.358Z,33
2018-11-05T07:41:00.940Z,33.2
2018-11-05T07:41:50.889Z,33.3
2018-11-05T07:42:41.527Z,33.4
2018-11-05T07:43:32.445Z,33.6
2018-11-05T07:44:21.398Z,33.8
2018-11-05T07:45:11.692Z,33.9
2018-11-05T07:46:02.029Z,34.1
2018-11-05T07:46:51.232Z,34.2
2018-11-05T07:47:41.472Z,34.3
2018-11-05T07:48:31.635Z,34.4
2018-11-05T07:49:21.695Z,34.6
2018-11-05T07:50:12.801Z,34.7
2018-11-05T07:51:02.379Z,34.9
2018-11-05T07:51:51.706Z,35.1
2018-11-05T07:52:42.506Z,35.2
2018-11-05T07:53:31.579Z,35.3
2018-11-05T07:54:22.624Z,35.4
2018-11-05T07:55:11.874Z,35.6
2018-11-05T07:56:02.784Z,35.7
2018-11-05T07:56:54.303Z,35.8
2018-11-05T07:57:42.580Z,35.9
2018-11-05T07:58:32.729Z,36.1
2018-11-05T07:59:21.644Z,36.3
2018-11-05T08:00:13.084Z,36.4
2018-11-05T08:01:02.351Z,36.6
2018-11-05T08:01:52.648Z,36.7
2018-11-05T08:02:43.303Z,36.8
2018-11-05T08:03:32.448Z,37
2018-11-05T08:04:23.744Z,37.1
2018-11-05T08:05:13.103Z,37.3
2018-11-05T08:06:02.431Z,37.5
2018-11-05T08:06:53.324Z,37.6
2018-11-05T08:07:43.944Z,37.8
2018-11-05T08:08:35.059Z,37.9
2018-11-05T08:09:24.275Z,38
2018-11-05T08:10:13.521Z,38.2
2018-11-05T08:11:03.966Z,38.3
2018-11-05T08:11:53.448Z,38.5
2018-11-05T08:12:43.710Z,38.6
2018-11-05T08:13:33.158Z,38.8
2018-11-05T08:14:25.469Z,38.9
2018-11-05T08:15:13.400Z,39.1
2018-11-05T08:16:03.705Z,39.2
2018-11-05T08:16:53.422Z,39.3
2018-11-05T08:17:43.178Z,39.5
2018-11-05T08:18:34.080Z,39.6
2018-11-05T08:19:24.480Z,39.8
2018-11-05T08:20:14.570Z,39.9
2018-11-05T08:21:04.585Z,40.1
2018-11-05T08:21:54.053Z,40.2
2018-11-05T08:22:43.548Z,40.4
2018-11-05T08:23:34.797Z,40.6
2018-11-05T08:24:23.850Z,40.7
2018-11-05T08:25:14.047Z,40.8
2018-11-05T08:26:05.507Z,40.9
2018-11-05T08:26:55.287Z,41.1
2018-11-05T08:27:45.075Z,41.2
2018-11-05T08:28:34.564Z,41.3
2018-11-05T08:29:24.599Z,41.4
2018-11-05T08:30:14.277Z,41.6
2018-11-05T08:31:05.004Z,41.8
2018-11-05T08:31:55.332Z,41.8
2018-11-05T08:32:45.219Z,41.9
2018-11-05T08:33:34.604Z,42.1
2018-11-05T08:34:24.739Z,42.1
2018-11-05T08:35:14.856Z,42.3
2018-11-05T08:36:04.991Z,42.4
2018-11-05T08:36:55.438Z,42.5
2018-11-05T08:37:45.343Z,42.6
2018-11-05T08:38:35.544Z,42.8
2018-11-05T08:39:25.711Z,42.9
2018-11-05T08:40:17.285Z,43
2018-11-05T08:41:05.851Z,43.1
2018-11-05T08:41:55.544Z,43.2
2018-11-05T08:42:45.853Z,43.3
2018-11-05T08:43:35.474Z,43.4
2018-11-05T08:44:25.329Z,43.5
2018-11-05T08:45:16.006Z,43.6
2018-11-05T08:46:05.628Z,43.8
2018-11-05T08:46:56.799Z,43.9
2018-11-05T08:47:45.859Z,44.1
2018-11-05T08:48:35.731Z,44.1
2018-11-05T08:49:26.405Z,44.3
2018-11-05T08:50:18.001Z,44.4
2018-11-05T08:51:10.883Z,44.4
2018-11-05T08:51:56.974Z,44.6
2018-11-05T09:08:39.308Z,46.6
2018-11-05T09:09:30.061Z,46.8
2018-11-05T09:10:22.003Z,46.9
2018-11-05T09:11:12.169Z,47
2018-11-05T09:12:00.003Z,47.1
2018-11-05T09:12:50.692Z,47.2
2018-11-05T09:13:40.635Z,47.3
2018-11-05T09:14:29.912Z,47.3
2018-11-05T09:15:20.247Z,47.4
2018-11-05T09:16:11.187Z,47.5
2018-11-05T09:17:00.676Z,47.6
2018-11-05T09:17:50.319Z,47.7
2018-11-05T09:18:40.314Z,47.8
2018-11-05T09:19:30.459Z,47.9
2018-11-05T09:20:20.929Z,48
2018-11-05T09:21:10.599Z,48.1
2018-11-05T09:22:00.307Z,48.3
2018-11-05T09:22:51.082Z,48.4
2018-11-05T09:23:41.189Z,48.4
2018-11-05T09:24:31.002Z,48.5
2018-11-05T09:25:21.326Z,48.6
2018-11-05T09:26:10.392Z,48.8
2018-11-05T09:27:00.605Z,48.8
2018-11-05T09:27:51.729Z,48.9
2018-11-05T09:28:41.599Z,49
2018-11-05T09:29:31.179Z,49.1
2018-11-05T09:30:21.450Z,49.2
2018-11-05T09:31:11.517Z,49.3
2018-11-05T09:32:01.794Z,49.4
2018-11-05T09:32:51.604Z,49.5
2018-11-05T09:33:40.533Z,49.7
2018-11-05T09:34:31.411Z,49.8
2018-11-05T09:35:21.788Z,49.9
2018-11-05T09:36:11.881Z,49.9
2018-11-05T09:37:01.661Z,50
2018-11-05T09:37:51.904Z,50.1
2018-11-05T09:38:42.061Z,50.2
2018-11-05T09:39:31.463Z,50.3
2018-11-05T09:40:21.376Z,50.4
2018-11-05T09:41:11.978Z,50.5
2018-11-05T09:42:02.468Z,50.6
2018-11-05T09:42:54.317Z,50.7
2018-11-05T09:43:41.468Z,50.7
2018-11-05T09:44:32.385Z,50.8
2018-11-05T09:45:22.415Z,50.9
2018-11-05T09:46:12.582Z,51
2018-11-05T09:47:01.981Z,51.1
2018-11-05T09:47:53.199Z,51.2
2018-11-05T09:48:42.658Z,51.3
2018-11-05T09:49:33.276Z,51.4
2018-11-05T09:50:23.311Z,51.4
2018-11-05T09:51:12.852Z,51.5
2018-11-05T09:52:02.477Z,51.6
2018-11-05T09:52:52.967Z,51.7
2018-11-05T09:53:42.980Z,51.8
2018-11-05T09:55:23.798Z,52
2018-11-05T09:56:13.590Z,52.1
2018-11-05T09:57:03.324Z,52.2
2018-11-05T09:57:53.122Z,52.3
2018-11-05T09:58:43.700Z,52.3
2018-11-05T09:59:34.050Z,52.4
2018-11-05T10:00:23.604Z,52.5
2018-11-05T10:01:13.079Z,52.6
2018-11-05T10:02:03.097Z,52.7
2018-11-05T10:02:55.721Z,52.8
2018-11-05T10:03:46.467Z,52.9
2018-11-05T10:04:37.551Z,52.9
2018-11-05T10:05:24.136Z,53.1
2018-11-05T10:06:13.396Z,53.1
2018-11-05T10:07:04.659Z,53.3
2018-11-05T10:07:54.649Z,53.3
2018-11-05T10:08:44.177Z,53.4
2018-11-05T10:09:35.044Z,53.5
2018-11-05T10:10:27.105Z,53.6
2018-11-05T10:11:14.635Z,53.7
2018-11-05T10:12:05.242Z,53.8
2018-11-05T10:12:54.754Z,53.8
2018-11-05T10:13:45.029Z,53.9
2018-11-05T10:14:34.379Z,54
2018-11-05T10:15:25.473Z,54.1
2018-11-05T10:16:14.464Z,54.3
2018-11-05T10:17:04.928Z,54.3
2018-11-05T10:17:55.239Z,54.4
2018-11-05T10:18:44.698Z,54.4
2018-11-05T10:19:34.632Z,54.5
2018-11-05T10:20:24.199Z,54.6
2018-11-05T10:21:14.870Z,54.6
2018-11-05T10:22:04.853Z,54.7
2018-11-05T10:22:54.838Z,54.8
2018-11-05T10:23:45.306Z,54.9
2018-11-05T10:24:36.286Z,55
2018-11-05T10:25:24.781Z,55.1
2018-11-05T10:26:15.214Z,55.1
2018-11-05T10:27:05.463Z,55.3
2018-11-05T10:27:55.351Z,55.3
2018-11-05T10:28:44.417Z,55.4
2018-11-05T10:29:35.170Z,55.5
2018-11-05T10:30:26.288Z,55.6
2018-11-05T10:31:15.370Z,55.6
2018-11-05T10:32:05.885Z,55.6
2018-11-05T10:32:56.154Z,55.7
2018-11-05T10:33:46.259Z,55.8
2018-11-05T10:34:35.630Z,55.9
2018-11-05T10:35:24.800Z,55.9
2018-11-05T10:36:15.690Z,56
2018-11-05T10:37:05.939Z,56.1
2018-11-05T10:37:55.520Z,56.2
2018-11-05T10:38:46.407Z,56.3
2018-11-05T10:39:35.797Z,56.3
2018-11-05T10:40:26.982Z,56.4
2018-11-05T10:41:16.311Z,56.5
2018-11-05T10:42:06.362Z,56.6
2018-11-05T10:42:55.824Z,56.6
2018-11-05T10:43:47.244Z,56.7
2018-11-05T10:44:36.794Z,56.8
2018-11-05T10:45:26.674Z,56.8
2018-11-05T10:46:18.150Z,56.9
2018-11-05T10:47:06.344Z,57
2018-11-05T10:47:57.399Z,57
2018-11-05T10:48:46.561Z,57.1
2018-11-05T10:49:37.413Z,57.1
2018-11-05T10:50:28.539Z,57.3
2018-11-05T10:51:18.118Z,57.3
2018-11-05T10:52:11.723Z,57.4
2018-11-05T10:52:57.646Z,57.4
2018-11-05T10:53:48.346Z,57.5
2018-11-05T10:54:38.316Z,57.6
2018-11-05T10:55:27.629Z,57.6
2018-11-05T10:56:17.012Z,57.7
2018-11-05T10:57:58.707Z,57.8
2018-11-05T10:58:47.853Z,57.9
2018-11-05T10:59:38.161Z,57.9
2018-11-05T11:00:27.661Z,58
2018-11-05T11:01:18.208Z,58.1
2018-11-05T11:02:08.288Z,58.2
2018-11-05T11:02:58.680Z,58.3
2018-11-05T11:03:48.854Z,58.3
2018-11-05T11:04:38.093Z,58.4
2018-11-05T11:05:27.780Z,58.4
2018-11-05T11:06:18.652Z,58.4
2018-11-05T11:07:08.650Z,58.5
2018-11-05T11:08:48.833Z,58.6
2018-11-05T11:09:39.666Z,58.7
2018-11-05T11:10:28.888Z,58.8
2018-11-05T11:11:18.280Z,58.9
2018-11-05T11:12:08.575Z,58.9
2018-11-05T11:12:58.865Z,58.9
2018-11-05T11:13:49.132Z,59
2018-11-05T11:14:39.369Z,59.1
2018-11-05T11:15:29.431Z,59.1
2018-11-05T11:16:19.073Z,59.2
2018-11-05T11:17:09.147Z,59.2
2018-11-05T11:17:58.906Z,59.3
2018-11-05T11:18:49.571Z,59.3
2018-11-05T11:19:38.252Z,59.3
2018-11-05T11:20:29.709Z,59.4
2018-11-05T11:21:19.687Z,59.4
2018-11-05T11:22:09.854Z,59.5
2018-11-05T11:22:58.488Z,59.6
2018-11-05T11:23:50.405Z,59.6
2018-11-05T11:24:39.940Z,59.7
2018-11-05T11:25:29.203Z,59.7
2018-11-05T11:26:19.640Z,59.8
2018-11-05T11:27:09.462Z,59.8
2018-11-05T11:28:03.723Z,59.9
2018-11-05T11:28:50.864Z,59.9
2018-11-05T11:29:40.119Z,60
2018-11-05T11:30:30.099Z,60
2018-11-05T11:31:19.866Z,60.1
2018-11-05T11:32:10.226Z,60.1
2018-11-05T11:32:59.329Z,60.2
2018-11-05T11:33:50.064Z,60.2
2018-11-05T11:34:40.126Z,60.3
2018-11-05T11:35:29.906Z,60.4
2018-11-05T11:36:21.656Z,60.4
2018-11-05T11:37:10.974Z,60.4
2018-11-05T11:38:00.124Z,60.4
2018-11-05T11:38:51.091Z,60.5
2018-11-05T11:39:41.091Z,60.5
2018-11-05T11:40:31.391Z,60.6
2018-11-05T11:41:21.453Z,60.6
2018-11-05T11:42:10.281Z,60.6
2018-11-05T11:43:01.098Z,60.6
2018-11-05T11:43:51.369Z,60.7
2018-11-05T11:44:41.541Z,60.8
2018-11-05T11:45:31.232Z,60.8
2018-11-05T11:46:20.464Z,60.8
2018-11-05T11:47:11.139Z,60.8
2018-11-05T11:48:02.043Z,60.8
2018-11-05T11:48:52.021Z,60.9
2018-11-05T11:49:41.308Z,60.9
2018-11-05T11:50:32.170Z,61
2018-11-05T11:51:21.618Z,61
2018-11-05T11:52:12.198Z,61
2018-11-05T11:53:01.981Z,61.1
2018-11-05T11:53:51.830Z,61.1
2018-11-05T11:54:42.475Z,61.1
2018-11-05T11:55:31.742Z,61.1
2018-11-05T11:56:21.555Z,61.2
2018-11-05T11:57:12.258Z,61.3
2018-11-05T11:58:02.133Z,61.3
2018-11-05T11:58:52.529Z,61.3
2018-11-05T11:59:42.615Z,61.3
2018-11-05T12:00:32.085Z,61.3
2018-11-05T12:01:22.700Z,61.4